Hideaway Hills, Ohio
Current Conditions -  °F | °C
As of 4:53 AM on Tuesday 21 Oct 2014 (Local Time) from KLHQ Reporting Station
Haze Haze  
Wind Chill: 51°   Ceiling: 1800
Heat Index: 51°   Visibility: 5mi
Dew Point: 49°   Wind: 0mph
Humidity: 92%   Direction: NA
Pressure: 29.89"   Gusts: NA
Location:  39.689°N, 82.4035°W
Report Text: KLHQ 210853Z AUTO 00000KT 5SM BR OVC018 11/09 A2989 RMK AO2 SLP122 T01060094 51004
Loading
Personal Weather Stations






























Interactive Weather Map
Tropical Storm Tracking
New forecast layout! Learn more

10-Day Weather Forecast

Advertisements
Track Severe Weather on mobile